sensor_id;sensor_type;location;lat;lon;timestamp;pressure;altitude;pressure_sealevel;temperature
24278;BMP280;12394;42.692;23.314;2023-03-13T00:03:46;95235.41;;;2.54
24278;BMP280;12394;42.692;23.314;2023-03-13T00:06:12;95239.81;;;2.54
24278;BMP280;12394;42.692;23.314;2023-03-13T00:08:38;95213.69;;;2.43
24278;BMP280;12394;42.692;23.314;2023-03-13T00:11:08;95228.44;;;2.71
24278;BMP280;12394;42.692;23.314;2023-03-13T00:13:34;95225.47;;;2.56
24278;BMP280;12394;42.692;23.314;2023-03-13T00:16:07;95221.66;;;2.38
24278;BMP280;12394;42.692;23.314;2023-03-13T00:18:33;95194.16;;;2.18
24278;BMP280;12394;42.692;23.314;2023-03-13T00:21:00;95244.00;;;2.46
24278;BMP280;12394;42.692;23.314;2023-03-13T00:23:26;95249.59;;;2.48
24278;BMP280;12394;42.692;23.314;2023-03-13T00:25:59;95241.94;;;2.52
24278;BMP280;12394;42.692;23.314;2023-03-13T00:28:27;95246.78;;;2.53
24278;BMP280;12394;42.692;23.314;2023-03-13T00:31:06;95250.00;;;2.50
24278;BMP280;12394;42.692;23.314;2023-03-13T00:33:33;95241.53;;;2.38
24278;BMP280;12394;42.692;23.314;2023-03-13T00:36:00;95244.13;;;2.50
24278;BMP280;12394;42.692;23.314;2023-03-13T00:38:27;95248.41;;;2.46
24278;BMP280;12394;42.692;23.314;2023-03-13T00:41:01;95235.41;;;2.42
24278;BMP280;12394;42.692;23.314;2023-03-13T00:43:27;95249.78;;;2.55
24278;BMP280;12394;42.692;23.314;2023-03-13T00:45:53;95252.16;;;2.60
24278;BMP280;12394;42.692;23.314;2023-03-13T00:48:18;95254.72;;;2.60
24278;BMP280;12394;42.692;23.314;2023-03-13T00:50:44;95254.19;;;2.55
24278;BMP280;12394;42.692;23.314;2023-03-13T00:53:09;95239.50;;;2.43
24278;BMP280;12394;42.692;23.314;2023-03-13T00:55:34;95248.53;;;2.49
24278;BMP280;12394;42.692;23.314;2023-03-13T00:58:00;95252.28;;;2.52
24278;BMP280;12394;42.692;23.314;2023-03-13T01:00:25;95248.94;;;2.51
24278;BMP280;12394;42.692;23.314;2023-03-13T01:02:50;95243.91;;;2.43
24278;BMP280;12394;42.692;23.314;2023-03-13T01:05:16;95231.78;;;2.31
24278;BMP280;12394;42.692;23.314;2023-03-13T01:07:41;95244.88;;;2.38
24278;BMP280;12394;42.692;23.314;2023-03-13T01:10:07;95244.22;;;2.41
24278;BMP280;12394;42.692;23.314;2023-03-13T01:12:33;95236.16;;;2.43
24278;BMP280;12394;42.692;23.314;2023-03-13T01:14:58;95245.19;;;2.37
24278;BMP280;12394;42.692;23.314;2023-03-13T01:17:23;95233.91;;;2.29
24278;BMP280;12394;42.692;23.314;2023-03-13T01:19:49;95235.97;;;2.36
24278;BMP280;12394;42.692;23.314;2023-03-13T01:22:14;95242.97;;;2.35
24278;BMP280;12394;42.692;23.314;2023-03-13T01:24:39;95246.50;;;2.31
24278;BMP280;12394;42.692;23.314;2023-03-13T01:27:05;95241.66;;;2.29
24278;BMP280;12394;42.692;23.314;2023-03-13T01:29:30;95243.50;;;2.29
24278;BMP280;12394;42.692;23.314;2023-03-13T01:31:56;95250.47;;;2.28
24278;BMP280;12394;42.692;23.314;2023-03-13T01:34:21;95250.34;;;2.37
24278;BMP280;12394;42.692;23.314;2023-03-13T01:36:46;95255.00;;;2.31
24278;BMP280;12394;42.692;23.314;2023-03-13T01:39:15;95263.38;;;2.28
24278;BMP280;12394;42.692;23.314;2023-03-13T01:41:41;95263.16;;;2.33
24278;BMP280;12394;42.692;23.314;2023-03-13T01:44:19;95263.38;;;2.28
24278;BMP280;12394;42.692;23.314;2023-03-13T01:46:45;95269.66;;;2.27
24278;BMP280;12394;42.692;23.314;2023-03-13T01:49:19;95257.06;;;2.26
24278;BMP280;12394;42.692;23.314;2023-03-13T01:54:22;95258.44;;;2.35
24278;BMP280;12394;42.692;23.314;2023-03-13T01:57:05;95263.50;;;2.32
24278;BMP280;12394;42.692;23.314;2023-03-13T01:59:39;95259.50;;;2.34
24278;BMP280;12394;42.692;23.314;2023-03-13T02:02:06;95264.03;;;2.37
24278;BMP280;12394;42.692;23.314;2023-03-13T02:04:36;95272.53;;;2.38
24278;BMP280;12394;42.692;23.314;2023-03-13T02:07:07;95247.25;;;2.31
24278;BMP280;12394;42.692;23.314;2023-03-13T02:09:34;95256.06;;;2.42
24278;BMP280;12394;42.692;23.314;2023-03-13T02:12:05;95266.38;;;2.42
24278;BMP280;12394;42.692;23.314;2023-03-13T02:14:34;95265.97;;;2.40
24278;BMP280;12394;42.692;23.314;2023-03-13T02:17:02;95273.28;;;2.38
24278;BMP280;12394;42.692;23.314;2023-03-13T02:19:48;95282.31;;;2.44
24278;BMP280;12394;42.692;23.314;2023-03-13T02:28:09;95292.41;;;2.49
24278;BMP280;12394;42.692;23.314;2023-03-13T02:30:37;95287.25;;;2.49
24278;BMP280;12394;42.692;23.314;2023-03-13T02:33:03;95294.56;;;2.47
24278;BMP280;12394;42.692;23.314;2023-03-13T02:35:30;95303.81;;;2.48
24278;BMP280;12394;42.692;23.314;2023-03-13T02:38:00;95311.56;;;2.48
24278;BMP280;12394;42.692;23.314;2023-03-13T02:40:29;95311.03;;;2.43
24278;BMP280;12394;42.692;23.314;2023-03-13T02:42:57;95316.19;;;2.43
24278;BMP280;12394;42.692;23.314;2023-03-13T02:45:24;95316.84;;;2.40
24278;BMP280;12394;42.692;23.314;2023-03-13T02:47:49;95320.41;;;2.35
24278;BMP280;12394;42.692;23.314;2023-03-13T02:50:15;95331.25;;;2.29
24278;BMP280;12394;42.692;23.314;2023-03-13T02:52:44;95334.78;;;2.24
24278;BMP280;12394;42.692;23.314;2023-03-13T02:55:14;95337.72;;;2.22
24278;BMP280;12394;42.692;23.314;2023-03-13T02:57:42;95333.94;;;2.20
24278;BMP280;12394;42.692;23.314;2023-03-13T03:02:48;95334.78;;;2.00
24278;BMP280;12394;42.692;23.314;2023-03-13T03:05:13;95327.69;;;1.97
24278;BMP280;12394;42.692;23.314;2023-03-13T03:10:27;95330.16;;;1.93
24278;BMP280;12394;42.692;23.314;2023-03-13T03:12:52;95315.84;;;1.84
24278;BMP280;12394;42.692;23.314;2023-03-13T03:15:18;95344.00;;;1.89
24278;BMP280;12394;42.692;23.314;2023-03-13T03:17:46;95354.72;;;1.78
24278;BMP280;12394;42.692;23.314;2023-03-13T03:20:11;95352.13;;;1.66
24278;BMP280;12394;42.692;23.314;2023-03-13T03:22:38;95338.31;;;1.50
24278;BMP280;12394;42.692;23.314;2023-03-13T03:25:05;95357.00;;;1.47
24278;BMP280;12394;42.692;23.314;2023-03-13T03:27:31;95371.81;;;1.50
24278;BMP280;12394;42.692;23.314;2023-03-13T03:29:56;95372.56;;;1.39
24278;BMP280;12394;42.692;23.314;2023-03-13T03:32:22;95357.47;;;1.28
24278;BMP280;12394;42.692;23.314;2023-03-13T03:34:47;95367.28;;;1.35
24278;BMP280;12394;42.692;23.314;2023-03-13T03:37:15;95367.69;;;1.37
24278;BMP280;12394;42.692;23.314;2023-03-13T03:39:40;95374.56;;;1.33
24278;BMP280;12394;42.692;23.314;2023-03-13T03:42:06;95370.22;;;1.25
24278;BMP280;12394;42.692;23.314;2023-03-13T03:44:33;95390.66;;;1.30
24278;BMP280;12394;42.692;23.314;2023-03-13T03:46:59;95402.22;;;1.24
24278;BMP280;12394;42.692;23.314;2023-03-13T03:49:24;95252.09;;;0.11
24278;BMP280;12394;42.692;23.314;2023-03-13T03:51:52;95395.19;;;1.12
24278;BMP280;12394;42.692;23.314;2023-03-13T03:54:18;95400.47;;;1.16
24278;BMP280;12394;42.692;23.314;2023-03-13T03:56:43;95405.31;;;1.17
24278;BMP280;12394;42.692;23.314;2023-03-13T03:59:09;95408.00;;;1.21
24278;BMP280;12394;42.692;23.314;2023-03-13T04:01:34;95408.50;;;1.14
24278;BMP280;12394;42.692;23.314;2023-03-13T04:03:59;95400.81;;;1.06
24278;BMP280;12394;42.692;23.314;2023-03-13T04:06:25;95419.56;;;1.15
24278;BMP280;12394;42.692;23.314;2023-03-13T04:08:50;95420.31;;;1.15
24278;BMP280;12394;42.692;23.314;2023-03-13T04:11:15;95421.06;;;1.16
24278;BMP280;12394;42.692;23.314;2023-03-13T04:13:41;95430.03;;;1.10
24278;BMP280;12394;42.692;23.314;2023-03-13T04:16:07;95435.94;;;1.10
24278;BMP280;12394;42.692;23.314;2023-03-13T04:18:33;95441.09;;;1.10
24278;BMP280;12394;42.692;23.314;2023-03-13T04:21:00;95445.97;;;1.12
24278;BMP280;12394;42.692;23.314;2023-03-13T04:23:26;95441.09;;;1.10
24278;BMP280;12394;42.692;23.314;2023-03-13T04:25:51;95444.31;;;1.07
24278;BMP280;12394;42.692;23.314;2023-03-13T04:28:17;95443.38;;;1.12
24278;BMP280;12394;42.692;23.314;2023-03-13T04:30:42;95439.09;;;0.95
24278;BMP280;12394;42.692;23.314;2023-03-13T04:33:07;95449.16;;;1.09
24278;BMP280;12394;42.692;23.314;2023-03-13T04:35:33;95457.78;;;1.13
24278;BMP280;12394;42.692;23.314;2023-03-13T04:37:58;95464.25;;;1.19
24278;BMP280;12394;42.692;23.314;2023-03-13T04:40:25;95477.13;;;1.19
24278;BMP280;12394;42.692;23.314;2023-03-13T04:42:50;95470.22;;;1.11
24278;BMP280;12394;42.692;23.314;2023-03-13T04:45:16;95485.94;;;1.18
24278;BMP280;12394;42.692;23.314;2023-03-13T04:47:41;95483.66;;;1.16
24278;BMP280;12394;42.692;23.314;2023-03-13T04:50:06;95486.38;;;1.20
24278;BMP280;12394;42.692;23.314;2023-03-13T04:52:32;95476.00;;;1.08
24278;BMP280;12394;42.692;23.314;2023-03-13T04:54:57;95485.78;;;1.14
24278;BMP280;12394;42.692;23.314;2023-03-13T04:57:23;95469.56;;;1.14
24278;BMP280;12394;42.692;23.314;2023-03-13T04:59:48;95482.16;;;1.15
24278;BMP280;12394;42.692;23.314;2023-03-13T05:02:13;95488.06;;;1.16
24278;BMP280;12394;42.692;23.314;2023-03-13T05:04:39;95481.91;;;1.08
24278;BMP280;12394;42.692;23.314;2023-03-13T05:07:04;95470.56;;;1.01
24278;BMP280;12394;42.692;23.314;2023-03-13T05:09:30;95451.34;;;0.98
24278;BMP280;12394;42.692;23.314;2023-03-13T05:11:55;95480.16;;;1.21
24278;BMP280;12394;42.692;23.314;2023-03-13T05:14:21;95493.47;;;1.23
24278;BMP280;12394;42.692;23.314;2023-03-13T05:16:46;95503.34;;;1.21
24278;BMP280;12394;42.692;23.314;2023-03-13T05:19:11;95507.88;;;1.24
24278;BMP280;12394;42.692;23.314;2023-03-13T05:21:37;95501.78;;;1.28
24278;BMP280;12394;42.692;23.314;2023-03-13T05:24:02;95512.38;;;1.36
24278;BMP280;12394;42.692;23.314;2023-03-13T05:26:28;95514.44;;;1.42
24278;BMP280;12394;42.692;23.314;2023-03-13T05:28:53;95515.13;;;1.51
24278;BMP280;12394;42.692;23.314;2023-03-13T05:31:18;95522.50;;;1.61
24278;BMP280;12394;42.692;23.314;2023-03-13T05:33:44;95517.81;;;1.63
24278;BMP280;12394;42.692;23.314;2023-03-13T05:36:09;95518.81;;;1.71
24278;BMP280;12394;42.692;23.314;2023-03-13T05:38:34;95524.09;;;1.74
24278;BMP280;12394;42.692;23.314;2023-03-13T05:41:00;95525.53;;;1.84
24278;BMP280;12394;42.692;23.314;2023-03-13T05:43:25;95524.13;;;1.87
24278;BMP280;12394;42.692;23.314;2023-03-13T05:45:50;95514.03;;;1.82
24278;BMP280;12394;42.692;23.314;2023-03-13T05:48:16;95528.31;;;2.00
24278;BMP280;12394;42.692;23.314;2023-03-13T05:50:41;95536.84;;;2.12
24278;BMP280;12394;42.692;23.314;2023-03-13T05:53:07;95537.53;;;2.21
24278;BMP280;12394;42.692;23.314;2023-03-13T05:55:32;95524.50;;;2.18
24278;BMP280;12394;42.692;23.314;2023-03-13T05:57:58;95545.84;;;2.27
24278;BMP280;12394;42.692;23.314;2023-03-13T06:00:23;95539.50;;;2.37
24278;BMP280;12394;42.692;23.314;2023-03-13T06:02:48;95547.72;;;2.51
24278;BMP280;12394;42.692;23.314;2023-03-13T06:05:14;95555.06;;;2.61
24278;BMP280;12394;42.692;23.314;2023-03-13T06:07:39;95549.59;;;2.62
24278;BMP280;12394;42.692;23.314;2023-03-13T06:10:05;95550.56;;;2.70
24278;BMP280;12394;42.692;23.314;2023-03-13T06:12:31;95553.72;;;2.76
24278;BMP280;12394;42.692;23.314;2023-03-13T06:14:56;95544.44;;;2.75
24278;BMP280;12394;42.692;23.314;2023-03-13T06:17:21;95546.94;;;2.83
24278;BMP280;12394;42.692;23.314;2023-03-13T06:19:47;95542.72;;;2.91
24278;BMP280;12394;42.692;23.314;2023-03-13T06:22:12;95554.38;;;3.09
24278;BMP280;12394;42.692;23.314;2023-03-13T06:24:38;95551.78;;;3.09
24278;BMP280;12394;42.692;23.314;2023-03-13T06:27:03;95554.81;;;3.23
24278;BMP280;12394;42.692;23.314;2023-03-13T06:29:28;95559.03;;;3.40
24278;BMP280;12394;42.692;23.314;2023-03-13T06:31:54;95549.84;;;3.54
24278;BMP280;12394;42.692;23.314;2023-03-13T06:34:19;95541.41;;;3.70
24278;BMP280;12394;42.692;23.314;2023-03-13T06:36:45;95531.78;;;3.82
24278;BMP280;12394;42.692;23.314;2023-03-13T06:39:11;95519.59;;;3.95
24278;BMP280;12394;42.692;23.314;2023-03-13T06:41:37;95534.13;;;4.27
24278;BMP280;12394;42.692;23.314;2023-03-13T06:44:03;95538.66;;;4.30
24278;BMP280;12394;42.692;23.314;2023-03-13T06:46:28;95539.78;;;4.45
24278;BMP280;12394;42.692;23.314;2023-03-13T06:48:54;95540.88;;;4.60
24278;BMP280;12394;42.692;23.314;2023-03-13T06:51:20;95543.84;;;4.89
24278;BMP280;12394;42.692;23.314;2023-03-13T06:53:46;95549.34;;;5.19
24278;BMP280;12394;42.692;23.314;2023-03-13T06:56:12;95543.41;;;5.34
24278;BMP280;12394;42.692;23.314;2023-03-13T06:58:38;95538.09;;;5.62
24278;BMP280;12394;42.692;23.314;2023-03-13T07:03:33;95532.53;;;6.56
24278;BMP280;12394;42.692;23.314;2023-03-13T07:05:59;95531.78;;;7.01
24278;BMP280;12394;42.692;23.314;2023-03-13T07:08:24;95535.53;;;7.53
24278;BMP280;12394;42.692;23.314;2023-03-13T07:10:50;95531.09;;;8.13
24278;BMP280;12394;42.692;23.314;2023-03-13T07:13:17;95547.72;;;8.68
24278;BMP280;12394;42.692;23.314;2023-03-13T07:15:44;95532.22;;;9.26
24278;BMP280;12394;42.692;23.314;2023-03-13T07:18:10;95543.59;;;10.27
24278;BMP280;12394;42.692;23.314;2023-03-13T07:20:35;95529.91;;;10.87
24278;BMP280;12394;42.692;23.314;2023-03-13T07:23:00;95535.16;;;11.47
24278;BMP280;12394;42.692;23.314;2023-03-13T07:25:26;95529.47;;;11.91
24278;BMP280;12394;42.692;23.314;2023-03-13T07:27:51;95545.34;;;12.50
24278;BMP280;12394;42.692;23.314;2023-03-13T07:30:18;95536.13;;;12.93
24278;BMP280;12394;42.692;23.314;2023-03-13T07:32:43;95531.41;;;13.26
24278;BMP280;12394;42.692;23.314;2023-03-13T07:35:09;95515.94;;;13.72
24278;BMP280;12394;42.692;23.314;2023-03-13T07:37:34;95536.91;;;14.17
24278;BMP280;12394;42.692;23.314;2023-03-13T07:39:59;95535.09;;;14.10
24278;BMP280;12394;42.692;23.314;2023-03-13T07:42:25;95524.81;;;15.07
24278;BMP280;12394;42.692;23.314;2023-03-13T07:44:52;95529.00;;;15.74
24278;BMP280;12394;42.692;23.314;2023-03-13T07:47:17;95544.16;;;16.10
24278;BMP280;12394;42.692;23.314;2023-03-13T07:49:42;95531.22;;;15.76
24278;BMP280;12394;42.692;23.314;2023-03-13T07:52:10;95536.19;;;15.93
24278;BMP280;12394;42.692;23.314;2023-03-13T07:54:35;95539.28;;;16.48
24278;BMP280;12394;42.692;23.314;2023-03-13T07:57:01;95530.25;;;16.65
24278;BMP280;12394;42.692;23.314;2023-03-13T07:59:27;95538.25;;;17.29
24278;BMP280;12394;42.692;23.314;2023-03-13T08:02:13;95529.75;;;18.12
24278;BMP280;12394;42.692;23.314;2023-03-13T08:04:41;95511.47;;;18.43
24278;BMP280;12394;42.692;23.314;2023-03-13T08:07:08;95516.28;;;18.86
24278;BMP280;12394;42.692;23.314;2023-03-13T08:09:33;95523.06;;;19.12
24278;BMP280;12394;42.692;23.314;2023-03-13T08:12:18;95520.81;;;19.23
24278;BMP280;12394;42.692;23.314;2023-03-13T08:14:43;95509.41;;;18.88
24278;BMP280;12394;42.692;23.314;2023-03-13T08:17:08;95509.25;;;18.41
24278;BMP280;12394;42.692;23.314;2023-03-13T08:19:34;95516.66;;;19.47
24278;BMP280;12394;42.692;23.314;2023-03-13T08:21:59;95514.06;;;19.91
24278;BMP280;12394;42.692;23.314;2023-03-13T08:24:25;95516.66;;;20.25
24278;BMP280;12394;42.692;23.314;2023-03-13T08:26:50;95520.22;;;20.84
24278;BMP280;12394;42.692;23.314;2023-03-13T08:29:15;95521.22;;;21.17
24278;BMP280;12394;42.692;23.314;2023-03-13T08:31:46;95535.75;;;20.95
24278;BMP280;12394;42.692;23.314;2023-03-13T08:34:13;95533.91;;;20.73
24278;BMP280;12394;42.692;23.314;2023-03-13T08:36:39;95527.72;;;20.85
24278;BMP280;12394;42.692;23.314;2023-03-13T08:39:25;95499.94;;;20.77
24278;BMP280;12394;42.692;23.314;2023-03-13T08:41:50;95523.63;;;21.34
24278;BMP280;12394;42.692;23.314;2023-03-13T08:44:17;95508.53;;;21.49
24278;BMP280;12394;42.692;23.314;2023-03-13T08:46:44;95520.28;;;22.06
24278;BMP280;12394;42.692;23.314;2023-03-13T08:49:10;95528.94;;;22.52
24278;BMP280;12394;42.692;23.314;2023-03-13T08:51:36;95522.41;;;22.95
24278;BMP280;12394;42.692;23.314;2023-03-13T08:54:02;95520.22;;;22.93
24278;BMP280;12394;42.692;23.314;2023-03-13T08:56:29;95507.50;;;23.12
24278;BMP280;12394;42.692;23.314;2023-03-13T08:58:59;95518.53;;;23.29
24278;BMP280;12394;42.692;23.314;2023-03-13T09:01:32;95522.91;;;23.65
24278;BMP280;12394;42.692;23.314;2023-03-13T09:03:58;95516.59;;;23.77
24278;BMP280;12394;42.692;23.314;2023-03-13T09:06:24;95510.47;;;24.00
24278;BMP280;12394;42.692;23.314;2023-03-13T09:08:49;95513.84;;;23.86
24278;BMP280;12394;42.692;23.314;2023-03-13T09:11:17;95516.88;;;24.32
24278;BMP280;12394;42.692;23.314;2023-03-13T09:13:45;95523.75;;;24.97
24278;BMP280;12394;42.692;23.314;2023-03-13T09:16:13;95513.19;;;26.35
24278;BMP280;12394;42.692;23.314;2023-03-13T09:18:39;95510.56;;;27.52
24278;BMP280;12394;42.692;23.314;2023-03-13T09:21:07;95487.63;;;27.56
24278;BMP280;12394;42.692;23.314;2023-03-13T09:23:34;95503.34;;;26.52
24278;BMP280;12394;42.692;23.314;2023-03-13T09:25:59;95503.06;;;25.99
24278;BMP280;12394;42.692;23.314;2023-03-13T09:28:25;95506.31;;;26.29
24278;BMP280;12394;42.692;23.314;2023-03-13T09:30:51;95507.13;;;26.40
24278;BMP280;12394;42.692;23.314;2023-03-13T09:33:18;95508.75;;;27.32
24278;BMP280;12394;42.692;23.314;2023-03-13T09:35:44;95506.09;;;26.06
24278;BMP280;12394;42.692;23.314;2023-03-13T09:38:34;95506.25;;;25.16
24278;BMP280;12394;42.692;23.314;2023-03-13T09:44:01;95508.63;;;25.95
24278;BMP280;12394;42.692;23.314;2023-03-13T09:46:38;95454.19;;;25.84
24278;BMP280;12394;42.692;23.314;2023-03-13T09:49:35;95492.59;;;25.75
24278;BMP280;12394;42.692;23.314;2023-03-13T09:54:51;95483.78;;;24.94
24278;BMP280;12394;42.692;23.314;2023-03-13T09:57:32;95476.94;;;24.28
24278;BMP280;12394;42.692;23.314;2023-03-13T10:02:37;95492.91;;;25.02
24278;BMP280;12394;42.692;23.314;2023-03-13T10:05:26;95482.66;;;24.36
24278;BMP280;12394;42.692;23.314;2023-03-13T10:08:31;95481.84;;;26.21
24278;BMP280;12394;42.692;23.314;2023-03-13T10:13:41;95466.38;;;22.62
24278;BMP280;12394;42.692;23.314;2023-03-13T10:16:18;95462.09;;;23.36
24278;BMP280;12394;42.692;23.314;2023-03-13T10:18:47;95457.81;;;24.50
24278;BMP280;12394;42.692;23.314;2023-03-13T10:21:19;95445.72;;;24.55
24278;BMP280;12394;42.692;23.314;2023-03-13T10:23:56;95456.06;;;25.17
24278;BMP280;12394;42.692;23.314;2023-03-13T10:26:31;95449.00;;;25.54
24278;BMP280;12394;42.692;23.314;2023-03-13T10:29:04;95413.69;;;24.95
24278;BMP280;12394;42.692;23.314;2023-03-13T10:31:36;95434.38;;;25.35
24278;BMP280;12394;42.692;23.314;2023-03-13T10:34:10;95425.34;;;25.33
24278;BMP280;12394;42.692;23.314;2023-03-13T10:36:48;95430.19;;;25.29
24278;BMP280;12394;42.692;23.314;2023-03-13T10:39:18;95419.03;;;26.33
24278;BMP280;12394;42.692;23.314;2023-03-13T10:41:47;95420.19;;;24.89
24278;BMP280;12394;42.692;23.314;2023-03-13T10:44:19;95327.25;;;23.84
24278;BMP280;12394;42.692;23.314;2023-03-13T10:46:47;95410.09;;;22.09
24278;BMP280;12394;42.692;23.314;2023-03-13T10:49:18;95414.53;;;23.11
24278;BMP280;12394;42.692;23.314;2023-03-13T10:51:50;95398.69;;;22.83
24278;BMP280;12394;42.692;23.314;2023-03-13T10:59:39;95408.25;;;22.66
24278;BMP280;12394;42.692;23.314;2023-03-13T11:02:20;95391.03;;;22.67
24278;BMP280;12394;42.692;23.314;2023-03-13T11:04:49;95389.72;;;22.72
24278;BMP280;12394;42.692;23.314;2023-03-13T11:07:31;95381.81;;;22.77
24278;BMP280;12394;42.692;23.314;2023-03-13T11:10:03;95378.69;;;21.44
24278;BMP280;12394;42.692;23.314;2023-03-13T11:12:33;95376.50;;;20.48
24278;BMP280;12394;42.692;23.314;2023-03-13T11:15:00;95375.47;;;19.83
24278;BMP280;12394;42.692;23.314;2023-03-13T11:17:39;95371.88;;;19.46
24278;BMP280;12394;42.692;23.314;2023-03-13T11:20:22;95365.19;;;18.73
24278;BMP280;12394;42.692;23.314;2023-03-13T11:31:36;95349.53;;;16.78
24278;BMP280;12394;42.692;23.314;2023-03-13T11:34:22;95338.38;;;16.38
24278;BMP280;12394;42.692;23.314;2023-03-13T11:37:09;95343.47;;;15.61
24278;BMP280;12394;42.692;23.314;2023-03-13T11:50:40;95318.38;;;15.33
24278;BMP280;12394;42.692;23.314;2023-03-13T11:56:17;95302.00;;;15.42
24278;BMP280;12394;42.692;23.314;2023-03-13T12:01:18;95292.41;;;15.51
24278;BMP280;12394;42.692;23.314;2023-03-13T12:09:08;95281.28;;;15.04
24278;BMP280;12394;42.692;23.314;2023-03-13T12:11:44;95278.41;;;14.56
24278;BMP280;12394;42.692;23.314;2023-03-13T12:20:15;95269.75;;;14.55
24278;BMP280;12394;42.692;23.314;2023-03-13T12:23:07;95264.88;;;14.54
24278;BMP280;12394;42.692;23.314;2023-03-13T12:25:47;95269.25;;;14.41
24278;BMP280;12394;42.692;23.314;2023-03-13T12:28:33;95214.91;;;14.07
24278;BMP280;12394;42.692;23.314;2023-03-13T12:31:21;95261.84;;;14.32
24278;BMP280;12394;42.692;23.314;2023-03-13T12:44:58;95252.88;;;14.30
24278;BMP280;12394;42.692;23.314;2023-03-13T12:47:32;95260.44;;;14.51
24278;BMP280;12394;42.692;23.314;2023-03-13T13:00:45;95261.44;;;14.10
24278;BMP280;12394;42.692;23.314;2023-03-13T13:03:45;95259.75;;;14.47
24278;BMP280;12394;42.692;23.314;2023-03-13T13:06:15;95248.69;;;14.32
24278;BMP280;12394;42.692;23.314;2023-03-13T13:08:43;95259.03;;;14.19
24278;BMP280;12394;42.692;23.314;2023-03-13T13:14:04;95253.78;;;13.96
24278;BMP280;12394;42.692;23.314;2023-03-13T13:16:54;95259.78;;;13.70
24278;BMP280;12394;42.692;23.314;2023-03-13T13:24:55;95241.94;;;13.58
24278;BMP280;12394;42.692;23.314;2023-03-13T13:35:36;95246.13;;;14.29
24278;BMP280;12394;42.692;23.314;2023-03-13T13:43:33;95230.63;;;14.11
24278;BMP280;12394;42.692;23.314;2023-03-13T13:48:37;95221.44;;;13.72
24278;BMP280;12394;42.692;23.314;2023-03-13T13:53:45;95225.69;;;13.66
24278;BMP280;12394;42.692;23.314;2023-03-13T13:56:27;95222.78;;;13.84
24278;BMP280;12394;42.692;23.314;2023-03-13T13:59:28;95217.34;;;13.71
24278;BMP280;12394;42.692;23.314;2023-03-13T14:02:33;95184.44;;;13.60
24278;BMP280;12394;42.692;23.314;2023-03-13T14:05:20;95219.97;;;13.95
24278;BMP280;12394;42.692;23.314;2023-03-13T14:07:50;95224.91;;;13.93
24278;BMP280;12394;42.692;23.314;2023-03-13T14:10:35;95204.06;;;13.78
24278;BMP280;12394;42.692;23.314;2023-03-13T14:13:09;95217.41;;;13.91
24278;BMP280;12394;42.692;23.314;2023-03-13T14:15:36;95210.66;;;13.90
24278;BMP280;12394;42.692;23.314;2023-03-13T14:20:50;95214.09;;;13.60
24278;BMP280;12394;42.692;23.314;2023-03-13T14:23:44;95210.97;;;13.69
24278;BMP280;12394;42.692;23.314;2023-03-13T14:28:50;95206.31;;;13.80
24278;BMP280;12394;42.692;23.314;2023-03-13T14:33:50;95197.97;;;13.85
24278;BMP280;12394;42.692;23.314;2023-03-13T14:36:16;95205.75;;;13.92
24278;BMP280;12394;42.692;23.314;2023-03-13T14:38:51;95212.50;;;13.93
24278;BMP280;12394;42.692;23.314;2023-03-13T14:41:42;95206.81;;;13.95
24278;BMP280;12394;42.692;23.314;2023-03-13T14:44:29;95212.78;;;13.99
24278;BMP280;12394;42.692;23.314;2023-03-13T14:46:58;95197.47;;;13.94
24278;BMP280;12394;42.692;23.314;2023-03-13T14:49:26;95207.78;;;14.04
24278;BMP280;12394;42.692;23.314;2023-03-13T14:52:23;95208.16;;;14.06
24278;BMP280;12394;42.692;23.314;2023-03-13T14:54:57;95207.78;;;14.04
24278;BMP280;12394;42.692;23.314;2023-03-13T14:57:25;95203.91;;;13.89
24278;BMP280;12394;42.692;23.314;2023-03-13T14:59:55;95195.88;;;13.73
24278;BMP280;12394;42.692;23.314;2023-03-13T15:08:44;95195.34;;;13.85
24278;BMP280;12394;42.692;23.314;2023-03-13T15:11:31;95196.88;;;13.82
24278;BMP280;12394;42.692;23.314;2023-03-13T15:17:26;95202.28;;;13.72
24278;BMP280;12394;42.692;23.314;2023-03-13T15:20:13;95198.94;;;13.71
24278;BMP280;12394;42.692;23.314;2023-03-13T15:22:42;95202.34;;;13.68
24278;BMP280;12394;42.692;23.314;2023-03-13T15:25:15;95207.59;;;13.68
24278;BMP280;12394;42.692;23.314;2023-03-13T15:27:42;95204.34;;;13.61
24278;BMP280;12394;42.692;23.314;2023-03-13T15:30:15;95202.75;;;13.40
24278;BMP280;12394;42.692;23.314;2023-03-13T15:32:42;95198.72;;;13.32
24278;BMP280;12394;42.692;23.314;2023-03-13T15:35:36;95196.72;;;13.16
24278;BMP280;12394;42.692;23.314;2023-03-13T15:38:08;95210.63;;;13.10
24278;BMP280;12394;42.692;23.314;2023-03-13T15:40:34;95208.75;;;13.14
24278;BMP280;12394;42.692;23.314;2023-03-13T15:43:00;95214.06;;;13.07
24278;BMP280;12394;42.692;23.314;2023-03-13T15:45:25;95218.69;;;12.96
24278;BMP280;12394;42.692;23.314;2023-03-13T15:47:51;95209.97;;;12.72
24278;BMP280;12394;42.692;23.314;2023-03-13T15:50:18;95219.78;;;12.64
24278;BMP280;12394;42.692;23.314;2023-03-13T15:52:44;95213.13;;;12.56
24278;BMP280;12394;42.692;23.314;2023-03-13T15:55:11;95202.09;;;12.38
24278;BMP280;12394;42.692;23.314;2023-03-13T15:57:41;95219.34;;;12.35
24278;BMP280;12394;42.692;23.314;2023-03-13T16:00:26;95206.72;;;12.23
24278;BMP280;12394;42.692;23.314;2023-03-13T16:02:52;95203.00;;;12.21
24278;BMP280;12394;42.692;23.314;2023-03-13T16:05:17;95215.03;;;12.15
24278;BMP280;12394;42.692;23.314;2023-03-13T16:07:42;95210.63;;;12.04
24278;BMP280;12394;42.692;23.314;2023-03-13T16:10:17;95200.25;;;11.94
24278;BMP280;12394;42.692;23.314;2023-03-13T16:12:43;95207.03;;;11.88
24278;BMP280;12394;42.692;23.314;2023-03-13T16:15:09;95186.16;;;11.70
24278;BMP280;12394;42.692;23.314;2023-03-13T16:17:35;95192.91;;;11.71
24278;BMP280;12394;42.692;23.314;2023-03-13T16:20:01;95200.38;;;11.76
24278;BMP280;12394;42.692;23.314;2023-03-13T16:22:26;95192.50;;;11.80
24278;BMP280;12394;42.692;23.314;2023-03-13T16:24:51;95172.00;;;11.60
24278;BMP280;12394;42.692;23.314;2023-03-13T16:27:17;95186.91;;;11.71
24278;BMP280;12394;42.692;23.314;2023-03-13T16:29:44;95198.09;;;11.78
24278;BMP280;12394;42.692;23.314;2023-03-13T16:32:14;95190.94;;;11.86